createdAt,value
2023-02-15T00:01:35.037Z,100.00
2023-02-15T00:06:32.097Z,100.00
2023-02-15T00:11:40.535Z,100.00
2023-02-15T00:16:38.117Z,100.00
2023-02-15T00:21:36.486Z,100.00
2023-02-15T00:26:33.906Z,100.00
2023-02-15T00:31:32.660Z,100.00
2023-02-15T00:36:29.152Z,100.00
2023-02-15T00:41:26.214Z,100.00
2023-02-15T00:46:22.723Z,100.00
2023-02-15T00:51:19.376Z,100.00
2023-02-15T00:56:15.824Z,100.00
2023-02-15T01:01:16.545Z,100.00
2023-02-15T01:06:14.798Z,100.00
2023-02-15T01:11:14.340Z,100.00
2023-02-15T01:16:10.805Z,100.00
2023-02-15T01:21:12.698Z,100.00
2023-02-15T01:26:10.174Z,100.00
2023-02-15T01:31:12.196Z,100.00
2023-02-15T01:36:09.049Z,100.00
2023-02-15T01:41:24.569Z,100.00
2023-02-15T01:46:25.843Z,100.00
2023-02-15T01:51:27.510Z,100.00
2023-02-15T01:56:31.353Z,100.00
2023-02-15T02:01:28.418Z,100.00
2023-02-15T02:06:26.552Z,100.00
2023-02-15T02:11:23.317Z,100.00
2023-02-15T02:16:51.227Z,100.00
2023-02-15T02:22:25.278Z,100.00
2023-02-15T02:27:40.316Z,100.00
2023-02-15T02:33:01.552Z,100.00
2023-02-15T02:38:19.827Z,100.00
2023-02-15T02:43:24.232Z,100.00
2023-02-15T02:48:27.726Z,100.00
2023-02-15T02:53:24.427Z,100.00
2023-02-15T02:58:30.198Z,100.00
2023-02-15T03:03:31.340Z,100.00
2023-02-15T03:08:36.522Z,100.00
2023-02-15T03:13:34.422Z,100.00
2023-02-15T03:18:36.594Z,100.00
2023-02-15T03:23:35.604Z,100.00
2023-02-15T03:28:42.094Z,100.00
2023-02-15T03:33:45.869Z,100.00
2023-02-15T03:39:00.265Z,100.00
2023-02-15T03:44:01.766Z,100.00
2023-02-15T03:49:21.156Z,100.00
2023-02-15T03:54:43.802Z,100.00
2023-02-15T03:59:58.804Z,100.00
2023-02-15T04:04:55.138Z,100.00
2023-02-15T04:10:10.109Z,100.00
2023-02-15T04:15:39.099Z,100.00
2023-02-15T04:20:54.008Z,100.00
2023-02-15T04:25:50.329Z,100.00
2023-02-15T04:30:47.512Z,100.00
2023-02-15T04:35:45.949Z,100.00
2023-02-15T04:40:42.310Z,100.00
2023-02-15T04:45:38.770Z,100.00
2023-02-15T04:50:35.127Z,100.00
2023-02-15T04:55:31.614Z,100.00
2023-02-15T05:00:28.463Z,100.00
2023-02-15T05:05:24.997Z,100.00
2023-02-15T05:10:21.421Z,100.00
2023-02-15T05:15:17.862Z,100.00
2023-02-15T05:20:14.742Z,100.00
2023-02-15T05:25:29.600Z,100.00
2023-02-15T05:30:26.178Z,100.00
2023-02-15T05:35:22.698Z,100.00
2023-02-15T05:40:19.311Z,100.00
2023-02-15T05:45:16.546Z,100.00
2023-02-15T05:50:12.883Z,100.00
2023-02-15T05:55:09.793Z,100.00
2023-02-15T06:00:07.178Z,100.00
2023-02-15T06:05:05.553Z,100.00
2023-02-15T06:10:01.911Z,100.00
2023-02-15T06:14:58.299Z,100.00
2023-02-15T06:19:54.618Z,100.00
2023-02-15T06:24:51.035Z,100.00
2023-02-15T06:29:47.415Z,100.00
2023-02-15T06:34:43.780Z,100.00
2023-02-15T06:39:40.145Z,100.00
2023-02-15T06:44:36.608Z,100.00
2023-02-15T06:49:32.978Z,100.00
2023-02-15T06:54:29.421Z,100.00
2023-02-15T06:59:25.835Z,100.00
2023-02-15T07:04:22.236Z,100.00
2023-02-15T07:09:18.623Z,100.00
2023-02-15T07:14:14.949Z,100.00
2023-02-15T07:19:11.365Z,100.00
2023-02-15T07:24:07.819Z,100.00
2023-02-15T07:29:04.222Z,100.00
2023-02-15T07:34:00.551Z,100.00
2023-02-15T07:38:56.931Z,100.00
2023-02-15T07:43:53.288Z,100.00
2023-02-15T07:48:49.667Z,100.00
2023-02-15T07:53:46.106Z,100.00
2023-02-15T07:58:51.639Z,100.00
2023-02-15T08:03:48.355Z,100.00
2023-02-15T08:08:44.906Z,100.00
2023-02-15T08:13:54.500Z,100.00
2023-02-15T08:18:52.645Z,100.00
2023-02-15T08:23:49.178Z,100.00
2023-02-15T08:28:47.310Z,100.00
2023-02-15T08:33:45.830Z,100.00
2023-02-15T08:38:42.864Z,100.00
2023-02-15T08:43:39.787Z,100.00
2023-02-15T08:48:36.152Z,100.00
2023-02-15T08:53:32.456Z,100.00
2023-02-15T08:58:31.583Z,100.00
2023-02-15T09:03:28.577Z,100.00
2023-02-15T09:08:25.304Z,100.00
2023-02-15T09:13:22.175Z,100.00
2023-02-15T09:18:18.667Z,100.00
2023-02-15T09:23:26.743Z,100.00
2023-02-15T09:28:23.468Z,100.00
2023-02-15T09:33:19.869Z,100.00
2023-02-15T09:38:16.208Z,100.00
2023-02-15T09:43:25.275Z,100.00
2023-02-15T09:48:42.005Z,100.00
2023-02-15T09:53:53.433Z,100.00
2023-02-15T09:58:53.511Z,100.00
2023-02-15T10:04:08.536Z,100.00
2023-02-15T10:09:18.471Z,100.00
2023-02-15T10:14:43.679Z,100.00
2023-02-15T10:20:05.648Z,100.00
2023-02-15T10:25:02.786Z,100.00
2023-02-15T10:30:08.348Z,100.00
2023-02-15T10:35:16.595Z,100.00
2023-02-15T10:40:26.477Z,100.00
2023-02-15T10:45:31.940Z,100.00
2023-02-15T10:50:38.141Z,100.00
2023-02-15T10:55:48.449Z,100.00
2023-02-15T11:00:53.318Z,100.00
2023-02-15T11:06:05.555Z,100.00
2023-02-15T11:11:09.992Z,100.00
2023-02-15T11:16:18.979Z,100.00
2023-02-15T11:21:24.103Z,100.00
2023-02-15T11:26:35.433Z,100.00
2023-02-15T11:31:44.955Z,100.00
2023-02-15T11:36:44.371Z,100.00
2023-02-15T11:41:52.980Z,100.00
2023-02-15T11:46:49.986Z,100.00
2023-02-15T11:51:46.377Z,100.00
2023-02-15T11:56:42.736Z,100.00
2023-02-15T12:01:43.453Z,100.00
2023-02-15T12:06:54.056Z,100.00
2023-02-15T12:11:50.455Z,100.00
2023-02-15T12:16:50.543Z,100.00
2023-02-15T12:21:52.040Z,100.00
2023-02-15T12:27:19.793Z,100.00
2023-02-15T12:32:23.280Z,98.57
2023-02-15T12:37:33.046Z,93.55
2023-02-15T12:42:45.852Z,94.51
2023-02-15T12:47:42.374Z,92.38
2023-02-15T12:52:40.106Z,95.75
2023-02-15T12:57:36.662Z,91.20
2023-02-15T13:02:41.961Z,90.09
2023-02-15T13:07:38.703Z,89.34
2023-02-15T13:12:36.018Z,90.23
2023-02-15T13:17:35.419Z,95.42
2023-02-15T13:22:42.966Z,91.06
2023-02-15T13:27:42.210Z,90.58
2023-02-15T13:32:41.963Z,89.03
2023-02-15T13:38:05.123Z,91.62
2023-02-15T13:43:41.183Z,90.66
2023-02-15T13:48:56.203Z,89.51
2023-02-15T13:54:11.775Z,83.66
2023-02-15T13:59:23.548Z,85.32
2023-02-15T14:04:38.900Z,84.27
2023-02-15T14:10:16.930Z,83.24
2023-02-15T14:15:51.597Z,85.40
2023-02-15T14:21:12.572Z,85.59
2023-02-15T14:26:33.160Z,83.51
2023-02-15T14:31:36.169Z,82.43
2023-02-15T14:36:34.148Z,82.89
2023-02-15T14:41:42.761Z,84.06
2023-02-15T14:47:05.875Z,80.38
2023-02-15T14:52:05.908Z,83.63
2023-02-15T14:57:02.259Z,81.87
2023-02-15T15:02:10.261Z,81.38
2023-02-15T15:07:12.760Z,82.69
2023-02-15T15:12:36.089Z,79.70
2023-02-15T15:17:32.492Z,79.91
2023-02-15T15:22:30.919Z,78.60
2023-02-15T15:27:39.621Z,79.58
2023-02-15T15:32:36.597Z,80.89
2023-02-15T15:37:59.194Z,82.25
2023-02-15T15:43:28.818Z,83.03
2023-02-15T15:48:39.103Z,87.02
2023-02-15T15:53:43.156Z,91.35
2023-02-15T15:58:55.290Z,93.68
2023-02-15T16:03:53.943Z,94.41
2023-02-15T16:08:52.106Z,100.00
2023-02-15T16:13:48.624Z,100.00
2023-02-15T16:18:45.806Z,100.00
2023-02-15T16:23:57.958Z,100.00
2023-02-15T16:28:54.923Z,100.00
2023-02-15T16:33:54.732Z,100.00
2023-02-15T16:38:51.021Z,100.00
2023-02-15T16:43:49.964Z,100.00
2023-02-15T16:48:49.492Z,100.00
2023-02-15T16:53:47.998Z,100.00
2023-02-15T16:58:45.524Z,100.00
2023-02-15T17:03:42.843Z,100.00
2023-02-15T17:08:45.771Z,100.00
2023-02-15T17:14:07.501Z,100.00
2023-02-15T17:19:13.950Z,100.00
2023-02-15T17:24:18.444Z,100.00
2023-02-15T17:29:39.228Z,100.00
2023-02-15T17:35:19.908Z,100.00
2023-02-15T17:40:26.975Z,100.00
2023-02-15T17:45:27.124Z,100.00
2023-02-15T17:50:26.005Z,100.00
2023-02-15T17:55:38.758Z,100.00
2023-02-15T18:00:57.616Z,100.00
2023-02-15T18:06:12.842Z,100.00
2023-02-15T18:11:29.176Z,100.00
2023-02-15T18:16:27.374Z,100.00
2023-02-15T18:21:24.686Z,100.00
2023-02-15T18:26:24.354Z,100.00
2023-02-15T18:31:21.593Z,100.00
2023-02-15T18:36:27.923Z,100.00
2023-02-15T18:41:24.506Z,100.00
2023-02-15T18:46:22.247Z,100.00
2023-02-15T18:51:21.291Z,100.00
2023-02-15T18:56:20.581Z,100.00
2023-02-15T19:01:19.838Z,100.00
2023-02-15T19:06:19.108Z,100.00
2023-02-15T19:11:23.005Z,100.00
2023-02-15T19:16:28.933Z,100.00
2023-02-15T19:21:27.755Z,100.00
2023-02-15T19:26:30.757Z,100.00
2023-02-15T19:31:36.200Z,100.00
2023-02-15T19:36:32.644Z,100.00
2023-02-15T19:41:34.269Z,100.00
2023-02-15T19:46:30.614Z,100.00
2023-02-15T19:51:27.680Z,100.00
2023-02-15T19:56:24.458Z,100.00
2023-02-15T20:01:23.033Z,100.00
2023-02-15T20:06:19.524Z,100.00
2023-02-15T20:11:15.878Z,100.00
2023-02-15T20:16:12.251Z,100.00
2023-02-15T20:21:15.110Z,100.00
2023-02-15T20:26:18.147Z,100.00
2023-02-15T20:31:16.471Z,100.00
2023-02-15T20:36:15.218Z,100.00
2023-02-15T20:41:36.005Z,100.00
2023-02-15T20:46:32.370Z,100.00
2023-02-15T20:51:28.727Z,100.00
2023-02-15T20:56:25.617Z,100.00
2023-02-15T21:01:21.953Z,100.00
2023-02-15T21:06:18.751Z,100.00
2023-02-15T21:11:24.151Z,100.00
2023-02-15T21:16:20.785Z,100.00
2023-02-15T21:21:23.604Z,100.00
2023-02-15T21:26:22.517Z,100.00
2023-02-15T21:31:23.692Z,100.00
2023-02-15T21:36:23.427Z,100.00
2023-02-15T21:41:41.050Z,100.00
2023-02-15T21:46:56.125Z,100.00
2023-02-15T21:52:11.179Z,100.00
2023-02-15T21:57:13.324Z,100.00
2023-02-15T22:02:28.305Z,100.00
2023-02-15T22:07:24.690Z,100.00
2023-02-15T22:12:21.951Z,100.00
2023-02-15T22:17:20.899Z,100.00
2023-02-15T22:22:17.600Z,100.00
2023-02-15T22:27:20.517Z,100.00
2023-02-15T22:32:22.927Z,100.00
2023-02-15T22:37:20.275Z,100.00
2023-02-15T22:42:27.943Z,100.00
2023-02-15T22:47:27.941Z,100.00
2023-02-15T22:52:25.277Z,100.00
2023-02-15T22:57:30.008Z,100.00
2023-02-15T23:02:26.854Z,100.00
2023-02-15T23:07:23.409Z,100.00
2023-02-15T23:12:24.494Z,100.00
2023-02-15T23:17:21.336Z,100.00
2023-02-15T23:22:18.245Z,100.00
2023-02-15T23:27:37.357Z,100.00
2023-02-15T23:32:33.714Z,100.00
2023-02-15T23:37:30.123Z,100.00
2023-02-15T23:42:30.507Z,100.00
2023-02-15T23:47:51.313Z,100.00
2023-02-15T23:52:49.354Z,100.00
2023-02-15T23:57:46.235Z,100.00
